North East, Maryland
Current Conditions -  °F | °C
As of 9:51 AM on Thursday 23 Oct 2014 (Local Time) from KILG Reporting Station
Overcast Overcast  
Wind Chill: 52°   Ceiling: 5500
Heat Index: 52°   Visibility: 10mi
Dew Point: 47°   Wind: 20mph
Humidity: 83%   Direction: 320°NW
Pressure: 29.81"   Gusts: 24mph
Location:  39.6°N, 75.94°W
Report Text: KILG 231351Z 32017G21KT 10SM OVC055 11/08 A2981 RMK AO2 RAE36 SLP093 P0000 T01110083
Loading
Personal Weather Stations






























Interactive Weather Map
Tropical Storm Tracking
New forecast layout! Learn more

10-Day Weather Forecast

Advertisements
Track Severe Weather on mobile